Illinois River (Oklahoma), Tahlequah (07196500)

StateOklahomaLatestPoor (271 cfs)
RiverIllinois RiverRatingObservedEstimated
Updated2022-09-25 22:30 (18 minutes ago)Flood - The river is flooding. Obstacles can be treacherous or deadly. The river should be avoided at this stage for casual trips and definitely for the inexperienced. Trips should be attempted only with protective gear and equipment.Flood(none)3470
Discharge271 cfs (median: 246 cfs)High - The river is high and potentially dangerous, especially for the young and / or inexperienced. Normal stream obstacles are sometimes difficult to navigate. Extended distances can be attempted, but canoe travel may not be advisable.High(none)1768
Height4.59 feetGood - Conditions are ideal for a canoe or kayak. Boats typically will drag on fewer than one-quarter of riffles, if at all, and portages are unnecessary or rare. Normal float lengths can be attempted without a problem.Good300940
TrendFalling (falling over 24 hours)Low - River is low but can still be floated. Some riffles are okay but most come with significant dragging and might need a portage. Float lengths should be reduced to accommodate low flow, dragging, and portages.Low(none)616
USGSExternal icon USGS Site (External icon Duck Duck Go Maps)Poor - River is too low to float comfortably. Most or all riffles will drag or must be portaged and some obstacles (such as slick shelf rock) cause undue problems. Avoid the river at this stage for casual paddling trips.Poor(none)234

Trending Data

Plot Image

Trips for Illinois River (Oklahoma), Tahlequah (07196500)

DateStartEndDistanceConditionDischargeHeightFishingDetails

A total of 0 rows are displayed.

Condition Descriptions

Fishing Conditions

Fish Species

Notes

Classic Trip List

The classic River Trips application is still available for use. It is updated with the new system using a data retrofit. It is no longer maintained. The original River Trips application is no longer updated (as of 1 Dec 2016) but can be checked for errors or for the condition of the data before it was converted to the new system.

Gauge Data Table

ObservationHeightDischargeMaximum
Discharge
Minimum
Discharge
Mean
Discharge
P05P10P20P25P50
(Median)
P75P80P90P95
2022-09-25 22:30 4.59 271 4290 (1970) 3 (1956) 455 44 92 126 143 246 451 602 875 1770
2022-09-25 21:30 4.60 274 4290 (1970) 3 (1956) 455 44 92 126 143 246 451 602 875 1770
2022-09-25 20:30 4.59 271 4290 (1970) 3 (1956) 455 44 92 126 143 246 451 602 875 1770
2022-09-25 19:30 4.59 271 4290 (1970) 3 (1956) 455 44 92 126 143 246 451 602 875 1770
2022-09-25 18:30 4.59 271 4290 (1970) 3 (1956) 455 44 92 126 143 246 451 602 875 1770
2022-09-25 17:30 4.59 271 4290 (1970) 3 (1956) 455 44 92 126 143 246 451 602 875 1770
2022-09-25 16:30 4.59 271 4290 (1970) 3 (1956) 455 44 92 126 143 246 451 602 875 1770
2022-09-25 15:30 4.58 267 4290 (1970) 3 (1956) 455 44 92 126 143 246 451 602 875 1770
2022-09-25 14:30 4.59 271 4290 (1970) 3 (1956) 455 44 92 126 143 246 451 602 875 1770
2022-09-25 13:30 4.59 271 4290 (1970) 3 (1956) 455 44 92 126 143 246 451 602 875 1770
2022-09-25 12:30 4.59 271 4290 (1970) 3 (1956) 455 44 92 126 143 246 451 602 875 1770
2022-09-25 11:30 4.60 274 4290 (1970) 3 (1956) 455 44 92 126 143 246 451 602 875 1770
2022-09-25 10:30 4.60 274 4290 (1970) 3 (1956) 455 44 92 126 143 246 451 602 875 1770
2022-09-25 09:30 4.61 277 4290 (1970) 3 (1956) 455 44 92 126 143 246 451 602 875 1770
2022-09-25 08:30 4.62 280 4290 (1970) 3 (1956) 455 44 92 126 143 246 451 602 875 1770
2022-09-25 07:30 4.61 277 4290 (1970) 3 (1956) 455 44 92 126 143 246 451 602 875 1770
2022-09-25 06:30 4.62 280 4290 (1970) 3 (1956) 455 44 92 126 143 246 451 602 875 1770
2022-09-25 05:30 4.62 280 4290 (1970) 3 (1956) 455 44 92 126 143 246 451 602 875 1770
2022-09-25 04:30 4.62 280 4290 (1970) 3 (1956) 455 44 92 126 143 246 451 602 875 1770
2022-09-25 03:30 4.61 277 4290 (1970) 3 (1956) 455 44 92 126 143 246 451 602 875 1770
2022-09-25 02:30 4.61 277 4290 (1970) 3 (1956) 455 44 92 126 143 246 451 602 875 1770
2022-09-25 01:30 4.62 280 4290 (1970) 3 (1956) 455 44 92 126 143 246 451 602 875 1770
2022-09-25 00:30 4.61 277 4290 (1970) 3 (1956) 455 44 92 126 143 246 451 602 875 1770
2022-09-24 23:30 4.61 277 3320 (2006) 3 (1956) 433 44 93 112 125 240 415 614 987 2010
2022-09-24 22:30 4.62 280 3320 (2006) 3 (1956) 433 44 93 112 125 240 415 614 987 2010
2022-09-24 21:30 4.61 277 3320 (2006) 3 (1956) 433 44 93 112 125 240 415 614 987 2010
2022-09-24 20:30 4.62 280 3320 (2006) 3 (1956) 433 44 93 112 125 240 415 614 987 2010
2022-09-24 19:30 4.61 277 3320 (2006) 3 (1956) 433 44 93 112 125 240 415 614 987 2010
2022-09-24 18:30 4.61 277 3320 (2006) 3 (1956) 433 44 93 112 125 240 415 614 987 2010
2022-09-24 17:30 4.61 277 3320 (2006) 3 (1956) 433 44 93 112 125 240 415 614 987 2010
2022-09-24 16:30 4.61 277 3320 (2006) 3 (1956) 433 44 93 112 125 240 415 614 987 2010
2022-09-24 15:30 4.61 277 3320 (2006) 3 (1956) 433 44 93 112 125 240 415 614 987 2010
2022-09-24 14:30 4.60 274 3320 (2006) 3 (1956) 433 44 93 112 125 240 415 614 987 2010
2022-09-24 13:30 4.60 274 3320 (2006) 3 (1956) 433 44 93 112 125 240 415 614 987 2010
2022-09-24 12:30 4.61 277 3320 (2006) 3 (1956) 433 44 93 112 125 240 415 614 987 2010
2022-09-24 11:30 4.61 277 3320 (2006) 3 (1956) 433 44 93 112 125 240 415 614 987 2010
2022-09-24 10:30 4.61 277 3320 (2006) 3 (1956) 433 44 93 112 125 240 415 614 987 2010
2022-09-24 09:30 4.61 277 3320 (2006) 3 (1956) 433 44 93 112 125 240 415 614 987 2010
2022-09-24 08:30 4.61 277 3320 (2006) 3 (1956) 433 44 93 112 125 240 415 614 987 2010
2022-09-24 07:30 4.61 277 3320 (2006) 3 (1956) 433 44 93 112 125 240 415 614 987 2010
2022-09-24 06:30 4.61 277 3320 (2006) 3 (1956) 433 44 93 112 125 240 415 614 987 2010
2022-09-24 05:30 4.61 277 3320 (2006) 3 (1956) 433 44 93 112 125 240 415 614 987 2010
2022-09-24 04:30 4.61 277 3320 (2006) 3 (1956) 433 44 93 112 125 240 415 614 987 2010
2022-09-24 03:30 4.61 277 3320 (2006) 3 (1956) 433 44 93 112 125 240 415 614 987 2010
2022-09-24 02:30 4.61 277 3320 (2006) 3 (1956) 433 44 93 112 125 240 415 614 987 2010
2022-09-24 01:30 4.61 277 3320 (2006) 3 (1956) 433 44 93 112 125 240 415 614 987 2010
2022-09-24 00:30 4.61 277 3320 (2006) 3 (1956) 433 44 93 112 125 240 415 614 987 2010
2022-09-23 23:30 4.60 274 4580 (2009) 3 (1956) 412 45 86 111 128 230 397 464 849 1670
2022-09-23 22:30 4.61 277 4580 (2009) 3 (1956) 412 45 86 111 128 230 397 464 849 1670
2022-09-23 21:30 4.61 277 4580 (2009) 3 (1956) 412 45 86 111 128 230 397 464 849 1670
2022-09-23 20:30 4.60 274 4580 (2009) 3 (1956) 412 45 86 111 128 230 397 464 849 1670
2022-09-23 19:30 4.59 271 4580 (2009) 3 (1956) 412 45 86 111 128 230 397 464 849 1670
2022-09-23 18:30 4.60 274 4580 (2009) 3 (1956) 412 45 86 111 128 230 397 464 849 1670
2022-09-23 17:30 4.59 271 4580 (2009) 3 (1956) 412 45 86 111 128 230 397 464 849 1670
2022-09-23 16:30 4.58 267 4580 (2009) 3 (1956) 412 45 86 111 128 230 397 464 849 1670
2022-09-23 15:30 4.59 271 4580 (2009) 3 (1956) 412 45 86 111 128 230 397 464 849 1670
2022-09-23 14:30 4.59 271 4580 (2009) 3 (1956) 412 45 86 111 128 230 397 464 849 1670
2022-09-23 13:30 4.60 274 4580 (2009) 3 (1956) 412 45 86 111 128 230 397 464 849 1670
2022-09-23 12:30 4.59 271 4580 (2009) 3 (1956) 412 45 86 111 128 230 397 464 849 1670
2022-09-23 11:30 4.61 277 4580 (2009) 3 (1956) 412 45 86 111 128 230 397 464 849 1670
2022-09-23 10:30 4.61 277 4580 (2009) 3 (1956) 412 45 86 111 128 230 397 464 849 1670
2022-09-23 09:30 4.61 277 4580 (2009) 3 (1956) 412 45 86 111 128 230 397 464 849 1670
2022-09-23 08:30 4.61 277 4580 (2009) 3 (1956) 412 45 86 111 128 230 397 464 849 1670
2022-09-23 07:30 4.62 280 4580 (2009) 3 (1956) 412 45 86 111 128 230 397 464 849 1670
2022-09-23 06:30 4.61 277 4580 (2009) 3 (1956) 412 45 86 111 128 230 397 464 849 1670
2022-09-23 05:30 4.61 277 4580 (2009) 3 (1956) 412 45 86 111 128 230 397 464 849 1670
2022-09-23 04:30 4.62 280 4580 (2009) 3 (1956) 412 45 86 111 128 230 397 464 849 1670
2022-09-23 03:30 4.61 277 4580 (2009) 3 (1956) 412 45 86 111 128 230 397 464 849 1670
2022-09-23 02:30 4.62 280 4580 (2009) 3 (1956) 412 45 86 111 128 230 397 464 849 1670
2022-09-23 01:30 4.61 277 4580 (2009) 3 (1956) 412 45 86 111 128 230 397 464 849 1670
2022-09-23 00:30 4.63 284 4580 (2009) 3 (1956) 412 45 86 111 128 230 397 464 849 1670
2022-09-22 23:30 4.62 280 5440 (1974) 4 (1956) 418 45 87 120 126 226 372 459 897 1740
2022-09-22 22:30 4.62 280 5440 (1974) 4 (1956) 418 45 87 120 126 226 372 459 897 1740
2022-09-22 21:30 4.62 280 5440 (1974) 4 (1956) 418 45 87 120 126 226 372 459 897 1740
2022-09-22 20:30 4.62 280 5440 (1974) 4 (1956) 418 45 87 120 126 226 372 459 897 1740
2022-09-22 19:30 4.62 280 5440 (1974) 4 (1956) 418 45 87 120 126 226 372 459 897 1740
2022-09-22 18:30 4.62 280 5440 (1974) 4 (1956) 418 45 87 120 126 226 372 459 897 1740
2022-09-22 17:30 4.62 280 5440 (1974) 4 (1956) 418 45 87 120 126 226 372 459 897 1740
2022-09-22 16:30 4.62 280 5440 (1974) 4 (1956) 418 45 87 120 126 226 372 459 897 1740
2022-09-22 15:30 4.62 280 5440 (1974) 4 (1956) 418 45 87 120 126 226 372 459 897 1740
2022-09-22 14:30 4.62 280 5440 (1974) 4 (1956) 418 45 87 120 126 226 372 459 897 1740
2022-09-22 13:30 4.63 284 5440 (1974) 4 (1956) 418 45 87 120 126 226 372 459 897 1740
2022-09-22 12:30 4.63 284 5440 (1974) 4 (1956) 418 45 87 120 126 226 372 459 897 1740
2022-09-22 11:30 4.62 280 5440 (1974) 4 (1956) 418 45 87 120 126 226 372 459 897 1740
2022-09-22 10:30 4.64 287 5440 (1974) 4 (1956) 418 45 87 120 126 226 372 459 897 1740
2022-09-22 09:30 4.63 284 5440 (1974) 4 (1956) 418 45 87 120 126 226 372 459 897 1740
2022-09-22 08:30 4.64 287 5440 (1974) 4 (1956) 418 45 87 120 126 226 372 459 897 1740
2022-09-22 07:30 4.64 287 5440 (1974) 4 (1956) 418 45 87 120 126 226 372 459 897 1740
2022-09-22 06:30 4.64 287 5440 (1974) 4 (1956) 418 45 87 120 126 226 372 459 897 1740
2022-09-22 05:30 4.64 287 5440 (1974) 4 (1956) 418 45 87 120 126 226 372 459 897 1740
2022-09-22 04:30 4.63 284 5440 (1974) 4 (1956) 418 45 87 120 126 226 372 459 897 1740
2022-09-22 03:30 4.63 284 5440 (1974) 4 (1956) 418 45 87 120 126 226 372 459 897 1740
2022-09-22 02:30 4.64 287 5440 (1974) 4 (1956) 418 45 87 120 126 226 372 459 897 1740
2022-09-22 01:30 4.62 280 5440 (1974) 4 (1956) 418 45 87 120 126 226 372 459 897 1740
2022-09-22 00:30 4.63 284 5440 (1974) 4 (1956) 418 45 87 120 126 226 372 459 897 1740
2022-09-21 23:30 4.63 284 11100 (1975) 4 (1954) 497 45 85 119 131 234 388 436 736 1270
2022-09-21 22:30 4.63 284 11100 (1975) 4 (1954) 497 45 85 119 131 234 388 436 736 1270
2022-09-21 21:30 4.64 287 11100 (1975) 4 (1954) 497 45 85 119 131 234 388 436 736 1270
2022-09-21 20:30 4.63 284 11100 (1975) 4 (1954) 497 45 85 119 131 234 388 436 736 1270
2022-09-21 19:30 4.63 284 11100 (1975) 4 (1954) 497 45 85 119 131 234 388 436 736 1270
2022-09-21 18:30 4.62 280 11100 (1975) 4 (1954) 497 45 85 119 131 234 388 436 736 1270
2022-09-21 17:30 4.62 280 11100 (1975) 4 (1954) 497 45 85 119 131 234 388 436 736 1270
2022-09-21 16:30 4.63 284 11100 (1975) 4 (1954) 497 45 85 119 131 234 388 436 736 1270
2022-09-21 15:30 4.62 280 11100 (1975) 4 (1954) 497 45 85 119 131 234 388 436 736 1270
2022-09-21 14:30 4.62 280 11100 (1975) 4 (1954) 497 45 85 119 131 234 388 436 736 1270
2022-09-21 13:30 4.63 284 11100 (1975) 4 (1954) 497 45 85 119 131 234 388 436 736 1270
2022-09-21 12:30 4.62 280 11100 (1975) 4 (1954) 497 45 85 119 131 234 388 436 736 1270
2022-09-21 11:30 4.64 287 11100 (1975) 4 (1954) 497 45 85 119 131 234 388 436 736 1270
2022-09-21 10:30 4.64 287 11100 (1975) 4 (1954) 497 45 85 119 131 234 388 436 736 1270
2022-09-21 09:30 4.64 287 11100 (1975) 4 (1954) 497 45 85 119 131 234 388 436 736 1270
2022-09-21 08:30 4.64 287 11100 (1975) 4 (1954) 497 45 85 119 131 234 388 436 736 1270
2022-09-21 07:30 4.64 287 11100 (1975) 4 (1954) 497 45 85 119 131 234 388 436 736 1270
2022-09-21 06:30 4.64 287 11100 (1975) 4 (1954) 497 45 85 119 131 234 388 436 736 1270
2022-09-21 05:30 4.65 290 11100 (1975) 4 (1954) 497 45 85 119 131 234 388 436 736 1270
2022-09-21 04:30 4.64 287 11100 (1975) 4 (1954) 497 45 85 119 131 234 388 436 736 1270
2022-09-21 03:30 4.64 287 11100 (1975) 4 (1954) 497 45 85 119 131 234 388 436 736 1270
2022-09-21 02:30 4.64 287 11100 (1975) 4 (1954) 497 45 85 119 131 234 388 436 736 1270
2022-09-21 01:30 4.65 290 11100 (1975) 4 (1954) 497 45 85 119 131 234 388 436 736 1270
2022-09-21 00:30 4.65 290 11100 (1975) 4 (1954) 497 45 85 119 131 234 388 436 736 1270
2022-09-20 23:30 4.64 287 10400 (1975) 3 (1954) 508 47 86 113 127 224 402 441 765 1560
2022-09-20 22:30 4.65 290 10400 (1975) 3 (1954) 508 47 86 113 127 224 402 441 765 1560
2022-09-20 21:30 4.65 290 10400 (1975) 3 (1954) 508 47 86 113 127 224 402 441 765 1560
2022-09-20 20:30 4.65 290 10400 (1975) 3 (1954) 508 47 86 113 127 224 402 441 765 1560
2022-09-20 19:30 4.65 290 10400 (1975) 3 (1954) 508 47 86 113 127 224 402 441 765 1560
2022-09-20 18:30 4.65 290 10400 (1975) 3 (1954) 508 47 86 113 127 224 402 441 765 1560
2022-09-20 17:30 4.65 290 10400 (1975) 3 (1954) 508 47 86 113 127 224 402 441 765 1560
2022-09-20 16:30 4.64 287 10400 (1975) 3 (1954) 508 47 86 113 127 224 402 441 765 1560
2022-09-20 15:30 4.65 290 10400 (1975) 3 (1954) 508 47 86 113 127 224 402 441 765 1560
2022-09-20 14:30 4.66 294 10400 (1975) 3 (1954) 508 47 86 113 127 224 402 441 765 1560
2022-09-20 13:30 4.66 294 10400 (1975) 3 (1954) 508 47 86 113 127 224 402 441 765 1560
2022-09-20 12:30 4.66 294 10400 (1975) 3 (1954) 508 47 86 113 127 224 402 441 765 1560
2022-09-20 11:30 4.66 294 10400 (1975) 3 (1954) 508 47 86 113 127 224 402 441 765 1560
2022-09-20 10:30 4.67 297 10400 (1975) 3 (1954) 508 47 86 113 127 224 402 441 765 1560
2022-09-20 09:30 4.67 297 10400 (1975) 3 (1954) 508 47 86 113 127 224 402 441 765 1560
2022-09-20 08:30 4.67 297 10400 (1975) 3 (1954) 508 47 86 113 127 224 402 441 765 1560
2022-09-20 07:30 4.68 301 10400 (1975) 3 (1954) 508 47 86 113 127 224 402 441 765 1560
2022-09-20 06:30 4.68 301 10400 (1975) 3 (1954) 508 47 86 113 127 224 402 441 765 1560
2022-09-20 05:30 4.68 301 10400 (1975) 3 (1954) 508 47 86 113 127 224 402 441 765 1560
2022-09-20 04:30 4.68 301 10400 (1975) 3 (1954) 508 47 86 113 127 224 402 441 765 1560
2022-09-20 03:30 4.67 297 10400 (1975) 3 (1954) 508 47 86 113 127 224 402 441 765 1560
2022-09-20 02:30 4.68 301 10400 (1975) 3 (1954) 508 47 86 113 127 224 402 441 765 1560
2022-09-20 01:30 4.68 301 10400 (1975) 3 (1954) 508 47 86 113 127 224 402 441 765 1560
2022-09-20 00:30 4.68 301 10400 (1975) 3 (1954) 508 47 86 113 127 224 402 441 765 1560
2022-09-19 23:30 4.68 301 2440 (1986) 2 (1954) 363 48 88 110 132 238 397 469 677 1530
2022-09-19 22:30 4.68 301 2440 (1986) 2 (1954) 363 48 88 110 132 238 397 469 677 1530
2022-09-19 21:30 4.68 301 2440 (1986) 2 (1954) 363 48 88 110 132 238 397 469 677 1530
2022-09-19 20:30 4.68 301 2440 (1986) 2 (1954) 363 48 88 110 132 238 397 469 677 1530
2022-09-19 19:30 4.68 301 2440 (1986) 2 (1954) 363 48 88 110 132 238 397 469 677 1530
2022-09-19 18:30 4.68 301 2440 (1986) 2 (1954) 363 48 88 110 132 238 397 469 677 1530
2022-09-19 17:30 4.68 301 2440 (1986) 2 (1954) 363 48 88 110 132 238 397 469 677 1530
2022-09-19 16:30 4.68 301 2440 (1986) 2 (1954) 363 48 88 110 132 238 397 469 677 1530
2022-09-19 15:30 4.68 301 2440 (1986) 2 (1954) 363 48 88 110 132 238 397 469 677 1530
2022-09-19 14:30 4.69 304 2440 (1986) 2 (1954) 363 48 88 110 132 238 397 469 677 1530
2022-09-19 13:30 4.69 304 2440 (1986) 2 (1954) 363 48 88 110 132 238 397 469 677 1530
2022-09-19 12:30 4.69 304 2440 (1986) 2 (1954) 363 48 88 110 132 238 397 469 677 1530
2022-09-19 11:30 4.69 304 2440 (1986) 2 (1954) 363 48 88 110 132 238 397 469 677 1530
2022-09-19 10:30 4.70 308 2440 (1986) 2 (1954) 363 48 88 110 132 238 397 469 677 1530
2022-09-19 09:30 4.69 304 2440 (1986) 2 (1954) 363 48 88 110 132 238 397 469 677 1530
2022-09-19 08:30 4.69 304 2440 (1986) 2 (1954) 363 48 88 110 132 238 397 469 677 1530
2022-09-19 07:30 4.70 308 2440 (1986) 2 (1954) 363 48 88 110 132 238 397 469 677 1530
2022-09-19 06:30 4.71 311 2440 (1986) 2 (1954) 363 48 88 110 132 238 397 469 677 1530
2022-09-19 05:30 4.69 304 2440 (1986) 2 (1954) 363 48 88 110 132 238 397 469 677 1530
2022-09-19 04:30 4.71 311 2440 (1986) 2 (1954) 363 48 88 110 132 238 397 469 677 1530
2022-09-19 03:30 4.71 311 2440 (1986) 2 (1954) 363 48 88 110 132 238 397 469 677 1530
2022-09-19 02:30 4.70 308 2440 (1986) 2 (1954) 363 48 88 110 132 238 397 469 677 1530
2022-09-19 01:30 4.71 311 2440 (1986) 2 (1954) 363 48 88 110 132 238 397 469 677 1530
2022-09-19 00:30 4.70 308 2440 (1986) 2 (1954) 363 48 88 110 132 238 397 469 677 1530
2022-09-18 23:30 4.71 311 4960 (1986) 1 (1954) 376 50 83 110 130 229 392 418 598 1330
2022-09-18 22:30 4.70 308 4960 (1986) 1 (1954) 376 50 83 110 130 229 392 418 598 1330
2022-09-18 21:30 4.70 308 4960 (1986) 1 (1954) 376 50 83 110 130 229 392 418 598 1330
2022-09-18 20:30 4.70 308 4960 (1986) 1 (1954) 376 50 83 110 130 229 392 418 598 1330
2022-09-18 19:30 4.71 311 4960 (1986) 1 (1954) 376 50 83 110 130 229 392 418 598 1330
2022-09-18 18:30 4.70 308 4960 (1986) 1 (1954) 376 50 83 110 130 229 392 418 598 1330
2022-09-18 17:30 4.70 308 4960 (1986) 1 (1954) 376 50 83 110 130 229 392 418 598 1330
2022-09-18 16:30 4.71 311 4960 (1986) 1 (1954) 376 50 83 110 130 229 392 418 598 1330
2022-09-18 15:30 4.71 311 4960 (1986) 1 (1954) 376 50 83 110 130 229 392 418 598 1330
2022-09-18 14:30 4.71 311 4960 (1986) 1 (1954) 376 50 83 110 130 229 392 418 598 1330
2022-09-18 13:30 4.71 311 4960 (1986) 1 (1954) 376 50 83 110 130 229 392 418 598 1330
2022-09-18 12:30 4.71 311 4960 (1986) 1 (1954) 376 50 83 110 130 229 392 418 598 1330
2022-09-18 11:30 4.72 315 4960 (1986) 1 (1954) 376 50 83 110 130 229 392 418 598 1330
2022-09-18 10:30 4.73 318 4960 (1986) 1 (1954) 376 50 83 110 130 229 392 418 598 1330
2022-09-18 09:30 4.71 311 4960 (1986) 1 (1954) 376 50 83 110 130 229 392 418 598 1330
2022-09-18 08:30 4.72 315 4960 (1986) 1 (1954) 376 50 83 110 130 229 392 418 598 1330
2022-09-18 07:30 4.73 318 4960 (1986) 1 (1954) 376 50 83 110 130 229 392 418 598 1330
2022-09-18 06:30 4.74 322 4960 (1986) 1 (1954) 376 50 83 110 130 229 392 418 598 1330
2022-09-18 05:30 4.73 318 4960 (1986) 1 (1954) 376 50 83 110 130 229 392 418 598 1330
2022-09-18 04:30 4.73 318 4960 (1986) 1 (1954) 376 50 83 110 130 229 392 418 598 1330
2022-09-18 03:30 4.73 318 4960 (1986) 1 (1954) 376 50 83 110 130 229 392 418 598 1330
2022-09-18 02:30 4.72 315 4960 (1986) 1 (1954) 376 50 83 110 130 229 392 418 598 1330
2022-09-18 01:30 4.73 318 4960 (1986) 1 (1954) 376 50 83 110 130 229 392 418 598 1330
2022-09-18 00:30 4.72 315 4960 (1986) 1 (1954) 376 50 83 110 130 229 392 418 598 1330

A total of 191 rows are displayed for years 1936 through 2020.